Time;durP1;ratioP1;P1;durP2;ratioP2;P2;SDS_P1;SDS_P2;PMS_P1;PMS_P2;Temp;Humidity;BMP_temperature;BMP_pressure;BME280_temperature;BME280_humidity;BME280_pressure;Samples;Min_cycle;Max_cycle;Signal;HPM_P1;HPM_P2
2024/03/11 00:06:19;;;;;;;4.70;3.10;;;;;;;;;;106454;1256;62143;-83
2024/03/11 00:08:45;;;;;;;6.10;3.60;;;;;;;;;;106330;1257;62036;-78
2024/03/11 00:11:12;;;;;;;6.30;4.20;;;;;;;;;;106445;1258;62730;-78
2024/03/11 00:13:38;;;;;;;7.10;4.50;;;;;;;;;;106580;1256;61972;-78
2024/03/11 00:16:06;;;;;;;8.70;5.30;;;;;;;;;;106500;1256;62248;-78
2024/03/11 00:18:33;;;;;;;10.70;4.40;;;;;;;;;;106522;1253;62063;-82
2024/03/11 00:20:59;;;;;;;4.70;3.20;;;;;;;;;;107134;1252;62135;-77
2024/03/11 00:23:25;;;;;;;3.60;2.60;;;;;;;;;;106491;1256;62633;-78
2024/03/11 00:25:52;;;;;;;5.30;3.70;;;;;;;;;;106535;1256;62077;-78
2024/03/11 00:28:18;;;;;;;10.10;4.70;;;;;;;;;;106523;1254;62067;-82
2024/03/11 00:30:45;;;;;;;7.70;4.30;;;;;;;;;;106860;1254;62037;-77
2024/03/11 00:33:13;;;;;;;9.10;4.90;;;;;;;;;;106396;1257;62027;-78
2024/03/11 00:35:43;;;;;;;5.50;2.90;;;;;;;;;;106924;1251;62685;-82
2024/03/11 00:38:09;;;;;;;5.30;3.50;;;;;;;;;;107944;1251;62047;-83
2024/03/11 00:40:36;;;;;;;3.80;2.70;;;;;;;;;;107584;1251;62012;-79
2024/03/11 00:43:04;;;;;;;4.80;2.70;;;;;;;;;;106821;1251;62052;-83
2024/03/11 00:45:30;;;;;;;4.10;3.00;;;;;;;;;;107112;1251;59984;-83
2024/03/11 00:47:57;;;;;;;5.00;2.60;;;;;;;;;;107236;1257;62168;-83
2024/03/11 00:50:24;;;;;;;4.80;2.90;;;;;;;;;;107139;1251;62028;-79
2024/03/11 00:52:51;;;;;;;3.50;2.70;;;;;;;;;;106540;1251;62185;-79
2024/03/11 00:55:18;;;;;;;5.30;2.80;;;;;;;;;;106320;1254;62071;-83
2024/03/11 00:57:45;;;;;;;5.40;2.20;;;;;;;;;;107020;1254;62025;-84
2024/03/11 01:00:12;;;;;;;6.50;3.00;;;;;;;;;;107053;1254;62111;-79
2024/03/11 01:02:38;;;;;;;32.90;12.60;;;;;;;;;;107125;1254;64036;-78
2024/03/11 01:05:05;;;;;;;8.10;3.20;;;;;;;;;;106468;1254;62118;-79
2024/03/11 01:07:35;;;;;;;12.30;5.70;;;;;;;;;;106436;1257;62021;-83
2024/03/11 01:10:02;;;;;;;4.70;2.80;;;;;;;;;;106940;1254;61950;-78
2024/03/11 01:12:29;;;;;;;7.10;4.50;;;;;;;;;;107063;1258;62448;-83
2024/03/11 01:14:55;;;;;;;4.90;3.30;;;;;;;;;;107085;1254;62077;-83
2024/03/11 01:17:22;;;;;;;3.90;2.50;;;;;;;;;;106940;1253;60277;-83
2024/03/11 01:19:48;;;;;;;5.80;2.20;;;;;;;;;;107090;1254;62049;-78
2024/03/11 01:22:18;;;;;;;4.20;2.60;;;;;;;;;;106447;1257;62734;-82
2024/03/11 01:24:44;;;;;;;4.30;2.50;;;;;;;;;;107068;1253;62804;-83
2024/03/11 01:27:11;;;;;;;11.00;7.90;;;;;;;;;;107171;1254;61855;-79
2024/03/11 01:29:41;;;;;;;9.10;5.50;;;;;;;;;;106423;1254;62113;-83
2024/03/11 01:32:08;;;;;;;10.20;4.50;;;;;;;;;;106811;1254;62069;-83
2024/03/11 01:34:34;;;;;;;5.60;3.60;;;;;;;;;;107046;1251;62025;-78
2024/03/11 01:37:01;;;;;;;4.90;3.50;;;;;;;;;;107070;1251;62011;-79
2024/03/11 01:39:39;;;;;;;9.70;5.90;;;;;;;;;;106493;1252;62069;-78
2024/03/11 01:42:14;;;;;;;3.90;3.10;;;;;;;;;;107126;1257;62050;-78
2024/03/11 01:44:41;;;;;;;6.20;3.00;;;;;;;;;;107126;1257;62046;-83
2024/03/11 01:47:09;;;;;;;8.10;4.00;;;;;;;;;;107180;1255;62244;-83
2024/03/11 01:49:37;;;;;;;4.30;2.50;;;;;;;;;;107133;1251;62728;-79
2024/03/11 01:52:04;;;;;;;6.30;3.90;;;;;;;;;;106360;1251;62015;-78
2024/03/11 01:54:31;;;;;;;7.50;2.70;;;;;;;;;;106475;1254;62097;-83
2024/03/11 01:56:57;;;;;;;6.60;2.90;;;;;;;;;;107101;1253;62063;-79
2024/03/11 01:59:24;;;;;;;3.60;2.30;;;;;;;;;;106552;1254;61054;-79
2024/03/11 02:01:51;;;;;;;6.20;4.10;;;;;;;;;;106296;1254;62119;-83
2024/03/11 02:04:19;;;;;;;12.90;8.00;;;;;;;;;;107100;1257;62069;-79
2024/03/11 02:06:45;;;;;;;16.50;6.60;;;;;;;;;;106504;1254;62034;-79
2024/03/11 02:09:14;;;;;;;22.40;8.90;;;;;;;;;;106907;1254;61967;-79
2024/03/11 02:11:40;;;;;;;7.80;3.90;;;;;;;;;;106394;1254;62319;-83
2024/03/11 02:14:08;;;;;;;6.40;3.70;;;;;;;;;;107147;1253;62144;-79
2024/03/11 02:16:34;;;;;;;18.50;9.90;;;;;;;;;;106287;1254;62025;-79
2024/03/11 02:19:01;;;;;;;7.70;4.50;;;;;;;;;;106466;1254;62042;-79
2024/03/11 02:21:29;;;;;;;6.70;4.00;;;;;;;;;;106478;1254;62162;-79
2024/03/11 02:23:56;;;;;;;8.90;5.80;;;;;;;;;;106510;1254;61975;-78
2024/03/11 02:26:22;;;;;;;6.50;4.00;;;;;;;;;;106494;1255;62610;-84
2024/03/11 02:28:48;;;;;;;21.90;10.80;;;;;;;;;;106970;1254;62072;-83
2024/03/11 02:31:15;;;;;;;21.30;9.80;;;;;;;;;;107149;1254;62150;-83
2024/03/11 02:33:41;;;;;;;7.50;3.70;;;;;;;;;;106971;1251;62088;-83
2024/03/11 02:36:08;;;;;;;8.00;3.10;;;;;;;;;;106958;1257;62060;-79
2024/03/11 02:38:34;;;;;;;6.50;2.90;;;;;;;;;;107119;1251;62142;-82
2024/03/11 02:41:01;;;;;;;9.40;4.40;;;;;;;;;;107195;1251;62091;-83
2024/03/11 02:43:27;;;;;;;7.10;2.40;;;;;;;;;;107183;1251;62030;-82
2024/03/11 02:45:54;;;;;;;5.00;2.50;;;;;;;;;;107118;1251;62031;-83
2024/03/11 02:48:20;;;;;;;8.60;5.50;;;;;;;;;;107111;1251;60625;-82
2024/03/11 02:50:46;;;;;;;7.40;2.80;;;;;;;;;;107138;1251;63047;-82
2024/03/11 02:53:13;;;;;;;8.20;5.40;;;;;;;;;;107137;1256;62329;-79
2024/03/11 02:55:40;;;;;;;6.10;3.90;;;;;;;;;;106470;1254;62151;-82
2024/03/11 02:58:08;;;;;;;7.90;3.80;;;;;;;;;;106941;1254;62931;-79
2024/03/11 03:00:34;;;;;;;4.80;2.80;;;;;;;;;;107757;1253;62739;-82
2024/03/11 03:03:02;;;;;;;3.60;3.00;;;;;;;;;;107334;1252;62475;-78
2024/03/11 03:05:28;;;;;;;7.70;5.70;;;;;;;;;;106458;1254;62069;-79
2024/03/11 03:07:55;;;;;;;5.20;3.40;;;;;;;;;;106327;1257;62072;-78
2024/03/11 03:10:22;;;;;;;4.40;2.10;;;;;;;;;;106520;1256;62134;-83
2024/03/11 03:12:48;;;;;;;4.80;2.80;;;;;;;;;;106518;1256;61941;-83
2024/03/11 03:15:16;;;;;;;4.20;2.90;;;;;;;;;;106503;1254;62251;-78
2024/03/11 03:17:43;;;;;;;8.20;2.50;;;;;;;;;;106589;1257;62021;-78
2024/03/11 03:20:10;;;;;;;4.60;3.20;;;;;;;;;;106502;1254;62078;-78
2024/03/11 03:22:38;;;;;;;4.70;2.40;;;;;;;;;;108100;1253;61975;-79
2024/03/11 03:25:04;;;;;;;5.50;2.90;;;;;;;;;;109492;1253;59671;-78
2024/03/11 03:27:31;;;;;;;5.40;3.40;;;;;;;;;;109466;1253;61562;-82
2024/03/11 03:29:58;;;;;;;6.80;4.10;;;;;;;;;;107777;1253;59916;-83
2024/03/11 03:32:24;;;;;;;5.60;2.90;;;;;;;;;;107031;1253;62423;-78
2024/03/11 03:34:51;;;;;;;9.80;5.60;;;;;;;;;;106388;1251;62168;-83
2024/03/11 03:37:18;;;;;;;10.20;3.90;;;;;;;;;;109095;1251;61131;-79
2024/03/11 03:39:44;;;;;;;8.90;5.80;;;;;;;;;;109538;1251;62066;-79
2024/03/11 03:42:11;;;;;;;9.40;5.00;;;;;;;;;;109520;1251;59808;-83
2024/03/11 03:44:37;;;;;;;6.70;5.20;;;;;;;;;;109502;1251;60065;-83
2024/03/11 03:47:04;;;;;;;7.40;4.80;;;;;;;;;;109511;1251;59756;-79
2024/03/11 03:49:31;;;;;;;9.90;5.10;;;;;;;;;;109576;1251;59920;-79
2024/03/11 03:51:57;;;;;;;8.30;4.70;;;;;;;;;;109545;1251;59964;-83
2024/03/11 03:54:23;;;;;;;9.20;5.00;;;;;;;;;;109411;1252;59648;-83
2024/03/11 03:56:50;;;;;;;10.50;4.60;;;;;;;;;;107663;1253;62065;-78
2024/03/11 03:59:16;;;;;;;11.10;6.90;;;;;;;;;;106479;1256;62145;-78
2024/03/11 04:01:43;;;;;;;17.90;8.00;;;;;;;;;;106288;1256;62227;-78
2024/03/11 04:04:09;;;;;;;8.00;5.50;;;;;;;;;;106319;1259;62092;-82
2024/03/11 04:06:35;;;;;;;7.10;4.30;;;;;;;;;;107109;1252;62055;-83
2024/03/11 04:09:02;;;;;;;7.50;5.00;;;;;;;;;;106938;1259;62136;-78
2024/03/11 04:11:28;;;;;;;5.70;3.80;;;;;;;;;;108985;1252;59725;-79
2024/03/11 04:13:55;;;;;;;6.90;4.80;;;;;;;;;;109490;1252;59857;-83
2024/03/11 04:16:21;;;;;;;8.20;4.70;;;;;;;;;;109099;1253;61995;-78
2024/03/11 04:18:48;;;;;;;13.80;5.50;;;;;;;;;;106497;1252;62144;-83
2024/03/11 04:21:16;;;;;;;8.20;4.60;;;;;;;;;;106473;1252;62154;-79
2024/03/11 04:23:44;;;;;;;6.60;4.30;;;;;;;;;;106483;1256;62076;-83
2024/03/11 04:26:10;;;;;;;5.30;4.60;;;;;;;;;;106858;1252;61953;-85
2024/03/11 04:28:37;;;;;;;9.40;5.20;;;;;;;;;;107151;1254;62195;-83
2024/03/11 04:31:04;;;;;;;7.80;4.60;;;;;;;;;;107116;1253;62059;-85
2024/03/11 04:33:31;;;;;;;7.30;4.60;;;;;;;;;;107068;1253;62601;-82
2024/03/11 04:35:57;;;;;;;12.80;6.30;;;;;;;;;;107091;1251;62099;-82
2024/03/11 04:38:24;;;;;;;16.60;8.10;;;;;;;;;;107156;1251;61948;-82
2024/03/11 04:40:50;;;;;;;14.70;7.30;;;;;;;;;;106565;1251;62059;-81
2024/03/11 04:43:17;;;;;;;7.60;5.60;;;;;;;;;;107113;1251;61987;-82
2024/03/11 04:45:43;;;;;;;7.20;4.30;;;;;;;;;;107166;1251;62062;-77
2024/03/11 04:48:10;;;;;;;9.30;5.60;;;;;;;;;;106559;1251;62194;-79
2024/03/11 04:50:40;;;;;;;11.00;5.60;;;;;;;;;;109549;1251;59838;-80
2024/03/11 04:53:06;;;;;;;12.10;6.60;;;;;;;;;;109440;1253;63663;-78
2024/03/11 04:55:33;;;;;;;12.60;5.60;;;;;;;;;;109481;1253;59962;-78
2024/03/11 04:57:59;;;;;;;10.40;5.40;;;;;;;;;;107776;1253;62166;-84
2024/03/11 05:00:26;;;;;;;10.30;5.10;;;;;;;;;;107168;1253;62027;-84
2024/03/11 05:02:53;;;;;;;10.60;5.50;;;;;;;;;;107128;1256;62044;-79
2024/03/11 05:05:21;;;;;;;8.30;5.50;;;;;;;;;;106315;1254;62354;-80
2024/03/11 05:07:49;;;;;;;11.30;5.90;;;;;;;;;;108428;1253;61929;-84
2024/03/11 05:10:16;;;;;;;21.50;19.60;;;;;;;;;;109377;1253;59710;-85
2024/03/11 05:12:43;;;;;;;13.70;9.90;;;;;;;;;;109479;1252;59846;-80
2024/03/11 05:15:10;;;;;;;8.90;6.80;;;;;;;;;;109374;1252;59654;-81
2024/03/11 05:17:36;;;;;;;8.80;5.60;;;;;;;;;;109506;1253;62813;-80
2024/03/11 05:20:06;;;;;;;10.00;6.30;;;;;;;;;;109462;1252;59729;-80
2024/03/11 05:22:32;;;;;;;11.30;5.60;;;;;;;;;;109437;1253;60085;-80
2024/03/11 05:24:59;;;;;;;10.60;6.70;;;;;;;;;;108378;1254;62150;-84
2024/03/11 05:27:25;;;;;;;10.20;3.90;;;;;;;;;;107058;1255;61998;-83
2024/03/11 05:29:51;;;;;;;12.20;6.50;;;;;;;;;;107016;1256;62147;-79
2024/03/11 05:32:18;;;;;;;10.40;5.60;;;;;;;;;;107061;1252;62152;-79
2024/03/11 05:34:44;;;;;;;11.30;7.90;;;;;;;;;;107091;1251;62167;-79
2024/03/11 05:37:11;;;;;;;16.70;10.50;;;;;;;;;;106461;1251;63128;-80
2024/03/11 05:39:37;;;;;;;25.60;11.90;;;;;;;;;;106516;1251;62163;-83
2024/03/11 05:42:05;;;;;;;19.80;10.90;;;;;;;;;;107095;1255;61925;-84
2024/03/11 05:44:32;;;;;;;14.60;7.70;;;;;;;;;;107116;1254;62239;-79
2024/03/11 05:46:59;;;;;;;13.00;7.70;;;;;;;;;;106454;1251;230506;-79
2024/03/11 05:49:28;;;;;;;14.80;8.00;;;;;;;;;;107005;1253;62071;-81
2024/03/11 05:51:55;;;;;;;10.40;6.90;;;;;;;;;;107230;1251;62133;-84
2024/03/11 05:54:24;;;;;;;17.30;8.50;;;;;;;;;;107110;1254;61971;-79
2024/03/11 05:56:54;;;;;;;17.50;11.00;;;;;;;;;;106917;1253;61804;-84
2024/03/11 05:59:24;;;;;;;15.80;9.60;;;;;;;;;;107062;1254;61923;-83
2024/03/11 06:01:50;;;;;;;14.80;8.70;;;;;;;;;;107145;1254;63182;-79
2024/03/11 06:04:17;;;;;;;22.10;13.50;;;;;;;;;;107141;1253;61955;-79
2024/03/11 06:06:47;;;;;;;23.80;16.70;;;;;;;;;;107197;1253;62038;-80
2024/03/11 06:09:14;;;;;;;15.60;11.00;;;;;;;;;;106554;1256;62017;-83
2024/03/11 06:11:42;;;;;;;20.90;12.70;;;;;;;;;;109456;1253;60450;-80
2024/03/11 06:14:14;;;;;;;19.60;11.20;;;;;;;;;;109215;1253;62113;-80
2024/03/11 06:16:42;;;;;;;17.40;12.40;;;;;;;;;;107124;1253;62037;-84
2024/03/11 06:19:10;;;;;;;17.90;11.60;;;;;;;;;;109462;1253;63114;-84
2024/03/11 06:21:42;;;;;;;17.90;11.60;;;;;;;;;;107392;1253;62040;-84
2024/03/11 06:24:10;;;;;;;15.80;10.30;;;;;;;;;;107152;1253;61989;-79
2024/03/11 06:26:37;;;;;;;12.70;9.30;;;;;;;;;;107117;1253;62149;-78
2024/03/11 06:29:03;;;;;;;14.20;7.40;;;;;;;;;;106494;1253;62042;-83
2024/03/11 06:31:30;;;;;;;12.90;8.00;;;;;;;;;;107109;1254;62705;-79
2024/03/11 06:33:57;;;;;;;12.30;7.80;;;;;;;;;;106546;1251;61916;-79
2024/03/11 06:36:23;;;;;;;12.20;8.50;;;;;;;;;;106528;1251;62112;-79
2024/03/11 06:38:50;;;;;;;14.50;9.30;;;;;;;;;;107154;1256;61933;-79
2024/03/11 06:41:17;;;;;;;12.40;7.60;;;;;;;;;;108631;1251;59707;-83
2024/03/11 06:43:44;;;;;;;18.60;8.80;;;;;;;;;;106996;1256;63913;-82
2024/03/11 06:46:15;;;;;;;15.60;8.80;;;;;;;;;;107144;1252;62147;-78
2024/03/11 06:48:42;;;;;;;12.60;8.20;;;;;;;;;;107126;1253;62162;-79
2024/03/11 06:51:08;;;;;;;12.90;6.80;;;;;;;;;;107155;1253;62028;-83
2024/03/11 06:53:35;;;;;;;10.50;7.30;;;;;;;;;;107133;1253;62011;-79
2024/03/11 06:56:07;;;;;;;10.80;7.50;;;;;;;;;;106584;1253;62683;-79
2024/03/11 06:58:34;;;;;;;28.10;15.90;;;;;;;;;;106558;1253;61908;-83
2024/03/11 07:01:00;;;;;;;29.10;16.80;;;;;;;;;;107205;1252;62025;-83
2024/03/11 07:03:30;;;;;;;31.80;19.20;;;;;;;;;;107109;1254;62039;-79
2024/03/11 07:05:59;;;;;;;30.50;15.50;;;;;;;;;;109305;1253;59651;-84
2024/03/11 07:08:27;;;;;;;31.50;15.10;;;;;;;;;;109359;1252;61626;-79
2024/03/11 07:10:54;;;;;;;18.80;11.80;;;;;;;;;;109413;1253;59928;-83
2024/03/11 07:13:20;;;;;;;17.30;11.10;;;;;;;;;;109484;1251;59861;-79
2024/03/11 07:15:46;;;;;;;25.00;13.70;;;;;;;;;;109440;1252;60041;-79
2024/03/11 07:18:16;;;;;;;21.10;15.10;;;;;;;;;;109460;1252;59715;-79
2024/03/11 07:20:43;;;;;;;28.00;19.40;;;;;;;;;;109463;1251;63645;-84
2024/03/11 07:23:10;;;;;;;23.60;16.50;;;;;;;;;;109302;1252;59741;-84
2024/03/11 07:25:36;;;;;;;27.60;14.30;;;;;;;;;;109373;1252;59730;-84
2024/03/11 07:28:04;;;;;;;53.50;25.20;;;;;;;;;;109512;1251;59732;-82
2024/03/11 07:30:31;;;;;;;57.20;28.30;;;;;;;;;;108611;1251;60007;-79
2024/03/11 07:33:14;;;;;;;43.00;22.20;;;;;;;;;;107758;1251;61922;-83
2024/03/11 07:35:43;;;;;;;36.60;19.50;;;;;;;;;;109423;1253;60970;-84
2024/03/11 07:38:10;;;;;;;38.20;20.00;;;;;;;;;;109373;1253;59761;-79
2024/03/11 07:40:37;;;;;;;33.20;17.10;;;;;;;;;;109300;1253;59645;-84
2024/03/11 07:43:06;;;;;;;26.70;13.60;;;;;;;;;;109421;1252;59700;-84
2024/03/11 07:45:32;;;;;;;21.40;12.30;;;;;;;;;;109220;1253;62744;-79
2024/03/11 07:48:01;;;;;;;17.60;11.10;;;;;;;;;;109300;1253;59753;-79
2024/03/11 07:50:27;;;;;;;24.50;12.30;;;;;;;;;;109286;1251;61215;-79
2024/03/11 07:52:54;;;;;;;19.80;11.30;;;;;;;;;;109375;1253;59901;-79
2024/03/11 07:55:24;;;;;;;20.50;12.50;;;;;;;;;;109444;1251;59672;-80
2024/03/11 07:57:53;;;;;;;22.60;13.20;;;;;;;;;;109463;1253;61687;-84
2024/03/11 08:00:21;;;;;;;22.40;13.70;;;;;;;;;;109381;1252;59854;-84
2024/03/11 08:02:47;;;;;;;15.30;9.80;;;;;;;;;;109340;1252;59792;-79
2024/03/11 08:05:14;;;;;;;17.10;12.10;;;;;;;;;;109372;1252;59994;-83
2024/03/11 08:07:44;;;;;;;26.20;15.50;;;;;;;;;;109260;1253;59806;-83
2024/03/11 08:10:12;;;;;;;18.50;13.80;;;;;;;;;;109400;1253;62526;-84
2024/03/11 08:12:39;;;;;;;23.60;16.50;;;;;;;;;;109429;1251;59957;-84
2024/03/11 08:15:07;;;;;;;23.60;14.20;;;;;;;;;;109323;1253;60007;-84
2024/03/11 08:17:35;;;;;;;22.60;14.30;;;;;;;;;;109373;1251;60153;-83
2024/03/11 08:20:04;;;;;;;29.80;19.10;;;;;;;;;;109414;1253;60009;-84
2024/03/11 08:22:30;;;;;;;22.70;15.30;;;;;;;;;;109392;1252;62949;-84
2024/03/11 08:24:57;;;;;;;30.10;19.60;;;;;;;;;;109395;1252;59717;-83
2024/03/11 08:27:23;;;;;;;31.90;20.30;;;;;;;;;;109380;1253;59705;-79
2024/03/11 08:29:50;;;;;;;32.80;18.30;;;;;;;;;;109289;1253;59808;-79
2024/03/11 08:32:16;;;;;;;28.90;16.30;;;;;;;;;;109417;1252;60013;-79
2024/03/11 08:34:43;;;;;;;23.20;16.10;;;;;;;;;;109249;1253;59738;-85
2024/03/11 08:37:09;;;;;;;27.60;17.30;;;;;;;;;;109480;1251;59800;-79
2024/03/11 08:39:36;;;;;;;35.30;19.80;;;;;;;;;;109458;1253;59681;-79
2024/03/11 08:42:02;;;;;;;43.60;22.80;;;;;;;;;;109382;1253;60066;-84
2024/03/11 08:44:29;;;;;;;36.50;20.20;;;;;;;;;;109313;1251;60023;-84
2024/03/11 08:46:56;;;;;;;28.60;19.40;;;;;;;;;;108199;1253;62728;-79
2024/03/11 08:49:24;;;;;;;38.50;24.70;;;;;;;;;;107415;1251;62070;-83
2024/03/11 08:51:51;;;;;;;45.30;25.50;;;;;;;;;;107661;1252;62037;-79
2024/03/11 08:54:17;;;;;;;28.10;17.20;;;;;;;;;;107369;1254;62042;-84
2024/03/11 08:56:44;;;;;;;27.50;14.70;;;;;;;;;;107396;1256;62149;-84
2024/03/11 08:59:11;;;;;;;81.50;36.00;;;;;;;;;;107638;1253;62784;-84
2024/03/11 09:01:40;;;;;;;98.70;45.30;;;;;;;;;;107657;1253;60661;-79
2024/03/11 09:04:12;;;;;;;65.80;31.80;;;;;;;;;;107611;1253;62149;-83
2024/03/11 09:06:39;;;;;;;39.60;20.00;;;;;;;;;;106765;1252;62044;-83
2024/03/11 09:09:06;;;;;;;28.70;17.40;;;;;;;;;;107303;1256;60188;-83
2024/03/11 09:11:32;;;;;;;33.20;19.60;;;;;;;;;;107401;1253;63149;-83
2024/03/11 09:13:59;;;;;;;36.70;22.40;;;;;;;;;;107458;1251;62084;-78
2024/03/11 09:16:27;;;;;;;31.50;19.20;;;;;;;;;;107258;1254;61930;-83
2024/03/11 09:18:53;;;;;;;28.20;18.00;;;;;;;;;;107449;1251;62073;-84
2024/03/11 09:21:23;;;;;;;28.50;16.30;;;;;;;;;;107428;1253;60118;-78
2024/03/11 09:23:49;;;;;;;27.70;15.70;;;;;;;;;;107383;1256;63678;-83
2024/03/11 09:26:17;;;;;;;28.50;17.30;;;;;;;;;;107125;1257;61953;-83
2024/03/11 09:28:46;;;;;;;22.80;13.90;;;;;;;;;;107141;1253;62175;-79
2024/03/11 09:31:13;;;;;;;25.10;13.90;;;;;;;;;;107367;1252;61949;-78
2024/03/11 09:33:41;;;;;;;24.50;14.80;;;;;;;;;;107391;1252;62031;-79
2024/03/11 09:36:08;;;;;;;20.00;13.50;;;;;;;;;;106602;1256;62143;-83
2024/03/11 09:38:35;;;;;;;149.50;68.20;;;;;;;;;;107168;1253;61989;-79
2024/03/11 09:41:05;;;;;;;35.90;22.50;;;;;;;;;;107404;1256;62010;-79
2024/03/11 09:43:32;;;;;;;22.70;14.20;;;;;;;;;;106392;1252;62280;-83
2024/03/11 09:45:59;;;;;;;51.30;31.00;;;;;;;;;;107142;1254;62117;-79
2024/03/11 09:48:25;;;;;;;27.70;17.70;;;;;;;;;;107125;1254;62139;-79
2024/03/11 09:50:53;;;;;;;46.50;30.20;;;;;;;;;;106524;1258;62039;-78
2024/03/11 09:53:19;;;;;;;54.30;34.30;;;;;;;;;;106756;1251;62026;-78
2024/03/11 09:55:46;;;;;;;31.10;18.80;;;;;;;;;;106564;1254;62451;-78
2024/03/11 09:58:12;;;;;;;24.40;16.90;;;;;;;;;;108441;1253;61128;-79
2024/03/11 10:00:49;;;;;;;68.30;35.10;;;;;;;;;;109287;1252;61914;-79
2024/03/11 10:03:16;;;;;;;33.40;18.80;;;;;;;;;;109422;1251;60562;-84
2024/03/11 10:05:45;;;;;;;25.50;15.70;;;;;;;;;;109135;1252;60811;-84
2024/03/11 10:08:11;;;;;;;43.20;24.10;;;;;;;;;;107417;1253;61518;-79
2024/03/11 10:10:39;;;;;;;37.40;19.60;;;;;;;;;;106674;1253;62220;-79
2024/03/11 10:13:05;;;;;;;78.10;50.70;;;;;;;;;;107309;1253;62676;-78
2024/03/11 10:15:32;;;;;;;50.80;35.10;;;;;;;;;;106513;1256;62059;-83
2024/03/11 10:18:15;;;;;;;55.50;42.20;;;;;;;;;;107069;1253;61981;-83
2024/03/11 10:20:43;;;;;;;51.70;33.20;;;;;;;;;;106926;1253;61986;-78
2024/03/11 10:23:10;;;;;;;;;;;;;;;;;;106659;1253;62139;-83
2024/03/11 10:25:40;;;;;;;39.50;31.40;;;;;;;;;;107005;1256;62745;-83
2024/03/11 10:28:06;;;;;;;24.80;19.80;;;;;;;;;;107294;1253;60116;-82
2024/03/11 10:30:32;;;;;;;29.20;24.10;;;;;;;;;;107301;1253;60395;-78
2024/03/11 10:33:02;;;;;;;34.00;27.90;;;;;;;;;;106513;1253;62034;-83
2024/03/11 10:35:33;;;;;;;36.50;28.60;;;;;;;;;;107104;1253;61909;-83
2024/03/11 10:38:07;;;;;;;48.60;38.80;;;;;;;;;;106931;1253;61885;-83
2024/03/11 10:40:33;;;;;;;32.50;25.10;;;;;;;;;;107331;1252;62024;-78
2024/03/11 10:43:26;;;;;;;34.10;25.60;;;;;;;;;;106563;1256;62082;-83
2024/03/11 10:45:52;;;;;;;64.00;52.30;;;;;;;;;;107040;1252;62597;-82
2024/03/11 10:48:19;;;;;;;38.00;32.70;;;;;;;;;;106939;1253;62030;-82
2024/03/11 10:50:45;;;;;;;34.70;28.80;;;;;;;;;;107065;1253;62078;-83
2024/03/11 10:53:19;;;;;;;76.30;65.90;;;;;;;;;;107416;1254;62138;-77
2024/03/11 10:55:47;;;;;;;29.80;21.00;;;;;;;;;;106523;1254;62228;-82
2024/03/11 10:58:13;;;;;;;23.60;16.70;;;;;;;;;;106455;1253;62196;-78
2024/03/11 11:00:43;;;;;;;32.90;27.00;;;;;;;;;;106577;1253;62047;-78
2024/03/11 11:03:13;;;;;;;37.50;25.40;;;;;;;;;;106691;1259;63675;-78
2024/03/11 11:05:52;;;;;;;35.20;22.20;;;;;;;;;;106469;1256;62144;-83
2024/03/11 11:08:22;;;;;;;38.30;29.40;;;;;;;;;;107528;1252;62448;-78
2024/03/11 11:10:49;;;;;;;101.30;79.90;;;;;;;;;;106574;1253;62089;-82
2024/03/11 11:13:15;;;;;;;91.10;68.20;;;;;;;;;;107405;1253;61930;-78
2024/03/11 11:15:45;;;;;;;81.20;68.20;;;;;;;;;;106701;1253;62052;-82
2024/03/11 11:18:13;;;;;;;54.70;40.50;;;;;;;;;;106488;1259;62085;-78
2024/03/11 11:20:42;;;;;;;44.80;26.60;;;;;;;;;;106646;1253;62248;-82
2024/03/11 11:23:10;;;;;;;;;;;;;;;;;;107405;1253;61919;-82
2024/03/11 11:25:40;;;;;;;33.70;22.10;;;;;;;;;;107375;1252;62046;-78
2024/03/11 11:28:08;;;;;;;31.50;20.30;;;;;;;;;;106711;1253;62032;-82
2024/03/11 11:30:36;;;;;;;43.90;30.90;;;;;;;;;;107398;1253;61781;-78
2024/03/11 11:33:03;;;;;;;81.00;67.20;;;;;;;;;;106763;1254;62053;-78
2024/03/11 11:35:36;;;;;;;57.00;41.80;;;;;;;;;;106682;1254;62066;-82
2024/03/11 11:38:21;;;;;;;45.60;35.60;;;;;;;;;;106577;1253;62002;-82
2024/03/11 11:40:50;;;;;;;40.10;32.60;;;;;;;;;;107113;1255;62095;-78
2024/03/11 11:43:20;;;;;;;57.20;47.50;;;;;;;;;;106471;1252;62072;-78
2024/03/11 11:45:56;;;;;;;46.40;34.10;;;;;;;;;;106454;1253;62073;-78
2024/03/11 11:48:26;;;;;;;50.90;36.40;;;;;;;;;;106534;1253;62128;-83
2024/03/11 11:50:58;;;;;;;54.30;41.70;;;;;;;;;;107151;1254;62028;-78
2024/03/11 11:53:26;;;;;;;44.10;29.00;;;;;;;;;;106266;1259;63634;-82
2024/03/11 11:55:52;;;;;;;35.20;21.80;;;;;;;;;;107631;1254;62168;-78
2024/03/11 11:58:19;;;;;;;44.60;31.50;;;;;;;;;;106496;1254;62034;-84
2024/03/11 12:00:45;;;;;;;51.40;35.70;;;;;;;;;;107146;1256;62101;-79
2024/03/11 12:03:30;;;;;;;77.20;50.70;;;;;;;;;;106928;1253;62219;-83
2024/03/11 12:06:20;;;;;;;43.00;30.80;;;;;;;;;;107295;1254;62140;-83
2024/03/11 12:08:47;;;;;;;53.10;34.80;;;;;;;;;;106927;1252;62474;-83
2024/03/11 12:11:19;;;;;;;64.50;49.60;;;;;;;;;;107115;1256;61964;-84
2024/03/11 12:13:46;;;;;;;56.70;38.50;;;;;;;;;;107213;1253;62608;-78
2024/03/11 12:16:27;;;;;;;33.80;22.80;;;;;;;;;;106496;1255;61935;-82
2024/03/11 12:19:00;;;;;;;43.40;27.30;;;;;;;;;;107010;1252;63901;-78
2024/03/11 12:21:27;;;;;;;37.70;27.00;;;;;;;;;;107036;1251;59928;-82
2024/03/11 12:23:56;;;;;;;37.70;25.20;;;;;;;;;;107111;1254;61933;-78
2024/03/11 12:26:23;;;;;;;31.40;22.70;;;;;;;;;;106438;1256;62018;-82
2024/03/11 12:28:59;;;;;;;36.30;26.30;;;;;;;;;;106558;1255;61987;-78
2024/03/11 12:31:25;;;;;;;34.70;26.20;;;;;;;;;;106630;1253;63005;-78
2024/03/11 12:33:53;;;;;;;33.60;23.70;;;;;;;;;;106544;1253;62197;-82
2024/03/11 12:36:21;;;;;;;32.40;18.50;;;;;;;;;;106946;1253;62247;-78
2024/03/11 12:38:48;;;;;;;27.20;20.00;;;;;;;;;;107065;1254;62306;-82
2024/03/11 12:41:34;;;;;;;38.90;28.40;;;;;;;;;;107233;1251;62033;-83
2024/03/11 12:44:10;;;;;;;35.50;23.10;;;;;;;;;;107159;1256;63558;-83
2024/03/11 12:46:38;;;;;;;43.70;33.20;;;;;;;;;;106451;1253;62129;-82
2024/03/11 12:49:04;;;;;;;55.80;44.80;;;;;;;;;;106490;1254;62089;-82
2024/03/11 12:51:31;;;;;;;41.20;28.40;;;;;;;;;;106474;1253;62015;-78
2024/03/11 12:54:19;;;;;;;27.80;19.60;;;;;;;;;;106957;1256;62125;-78
2024/03/11 12:57:02;;;;;;;28.70;18.30;;;;;;;;;;106946;1256;63776;-82
2024/03/11 12:59:28;;;;;;;37.10;24.80;;;;;;;;;;106988;1253;62083;-78
2024/03/11 13:02:11;;;;;;;36.70;24.30;;;;;;;;;;106537;1256;62159;-78
2024/03/11 13:04:37;;;;;;;47.30;37.10;;;;;;;;;;106494;1256;62066;-82
2024/03/11 13:07:09;;;;;;;47.40;34.40;;;;;;;;;;106417;1256;62044;-82
2024/03/11 13:09:35;;;;;;;76.10;48.40;;;;;;;;;;106392;1253;62143;-83
2024/03/11 13:12:03;;;;;;;50.30;34.30;;;;;;;;;;106396;1254;61968;-78
2024/03/11 13:14:30;;;;;;;417.80;243.70;;;;;;;;;;106464;1253;61964;-78
2024/03/11 13:16:56;;;;;;;167.80;94.00;;;;;;;;;;106384;1254;62119;-82
2024/03/11 13:19:25;;;;;;;456.50;259.00;;;;;;;;;;106464;1253;62054;-82
2024/03/11 13:21:52;;;;;;;85.50;53.40;;;;;;;;;;106540;1253;62245;-83
2024/03/11 13:24:19;;;;;;;37.10;23.60;;;;;;;;;;106693;1252;62147;-82
2024/03/11 13:26:49;;;;;;;80.00;54.20;;;;;;;;;;106385;1254;62011;-82
2024/03/11 13:29:16;;;;;;;35.90;24.20;;;;;;;;;;106429;1256;62415;-82
2024/03/11 13:31:43;;;;;;;31.40;23.10;;;;;;;;;;106556;1254;62032;-83
2024/03/11 13:34:10;;;;;;;32.60;22.90;;;;;;;;;;106651;1256;62793;-82
2024/03/11 13:36:37;;;;;;;39.90;32.90;;;;;;;;;;107217;1254;61971;-78
2024/03/11 13:39:15;;;;;;;61.00;49.40;;;;;;;;;;107056;1254;62005;-78
2024/03/11 13:41:46;;;;;;;66.70;55.40;;;;;;;;;;107098;1253;62050;-78
2024/03/11 13:44:20;;;;;;;70.10;51.50;;;;;;;;;;107140;1254;60161;-78
2024/03/11 13:46:48;;;;;;;40.60;28.20;;;;;;;;;;106290;1258;62875;-82
2024/03/11 13:49:18;;;;;;;40.50;31.40;;;;;;;;;;106851;1258;62009;-78
2024/03/11 13:51:45;;;;;;;47.80;34.60;;;;;;;;;;106523;1254;62412;-78
2024/03/11 13:54:11;;;;;;;38.10;25.10;;;;;;;;;;106518;1256;62409;-78
2024/03/11 13:56:38;;;;;;;95.80;62.30;;;;;;;;;;106491;1253;62019;-78
2024/03/11 13:59:06;;;;;;;142.40;113.00;;;;;;;;;;106531;1251;62168;-82
2024/03/11 14:01:32;;;;;;;138.60;113.00;;;;;;;;;;106903;1258;62146;-83
2024/03/11 14:03:59;;;;;;;188.90;159.50;;;;;;;;;;107204;1256;61906;-79
2024/03/11 14:06:25;;;;;;;139.70;122.50;;;;;;;;;;106419;1256;64017;-78
2024/03/11 14:08:51;;;;;;;89.00;71.80;;;;;;;;;;106476;1251;62088;-83
2024/03/11 14:11:18;;;;;;;78.80;65.60;;;;;;;;;;107012;1256;62080;-83
2024/03/11 14:13:46;;;;;;;72.00;57.50;;;;;;;;;;107172;1256;62088;-79
2024/03/11 14:16:12;;;;;;;69.50;57.60;;;;;;;;;;107070;1251;61929;-84
2024/03/11 14:18:39;;;;;;;48.70;32.70;;;;;;;;;;107165;1254;62153;-83
2024/03/11 14:21:08;;;;;;;58.00;39.10;;;;;;;;;;107021;1259;62109;-83
2024/03/11 14:23:36;;;;;;;75.50;49.10;;;;;;;;;;107182;1254;63693;-80